sensor_id;sensor_type;location;lat;lon;timestamp;P1;durP1;ratioP1;P2;durP2;ratioP2
18383;SDS011;9318;48.644;9.456;2023-06-26T00:00:07;0.80;;;0.80;;
18383;SDS011;9318;48.644;9.456;2023-06-26T00:02:37;0.70;;;0.70;;
18383;SDS011;9318;48.644;9.456;2023-06-26T00:05:04;0.77;;;0.77;;
18383;SDS011;9318;48.644;9.456;2023-06-26T00:07:31;0.90;;;0.90;;
18383;SDS011;9318;48.644;9.456;2023-06-26T00:10:00;0.80;;;0.80;;
18383;SDS011;9318;48.644;9.456;2023-06-26T00:12:27;0.70;;;0.70;;
18383;SDS011;9318;48.644;9.456;2023-06-26T00:14:54;0.80;;;0.80;;
18383;SDS011;9318;48.644;9.456;2023-06-26T00:17:21;0.80;;;0.80;;
18383;SDS011;9318;48.644;9.456;2023-06-26T00:19:49;0.90;;;0.90;;
18383;SDS011;9318;48.644;9.456;2023-06-26T00:22:17;0.70;;;0.70;;
18383;SDS011;9318;48.644;9.456;2023-06-26T00:24:44;0.75;;;0.75;;
18383;SDS011;9318;48.644;9.456;2023-06-26T00:27:11;0.90;;;0.90;;
18383;SDS011;9318;48.644;9.456;2023-06-26T00:29:38;0.80;;;0.80;;
18383;SDS011;9318;48.644;9.456;2023-06-26T00:32:05;0.80;;;0.80;;
18383;SDS011;9318;48.644;9.456;2023-06-26T00:34:33;0.80;;;0.80;;
18383;SDS011;9318;48.644;9.456;2023-06-26T00:37:01;0.80;;;0.80;;
18383;SDS011;9318;48.644;9.456;2023-06-26T00:39:27;0.80;;;0.80;;
18383;SDS011;9318;48.644;9.456;2023-06-26T00:41:54;0.90;;;0.90;;
18383;SDS011;9318;48.644;9.456;2023-06-26T00:44:21;0.80;;;0.80;;
18383;SDS011;9318;48.644;9.456;2023-06-26T00:46:48;0.80;;;0.80;;
18383;SDS011;9318;48.644;9.456;2023-06-26T00:49:15;0.90;;;0.90;;
18383;SDS011;9318;48.644;9.456;2023-06-26T00:51:42;0.80;;;0.80;;
18383;SDS011;9318;48.644;9.456;2023-06-26T00:54:10;0.88;;;0.88;;
18383;SDS011;9318;48.644;9.456;2023-06-26T00:56:39;0.80;;;0.80;;
18383;SDS011;9318;48.644;9.456;2023-06-26T00:59:06;0.85;;;0.85;;
18383;SDS011;9318;48.644;9.456;2023-06-26T01:01:33;0.80;;;0.80;;
18383;SDS011;9318;48.644;9.456;2023-06-26T01:04:00;0.70;;;0.70;;
18383;SDS011;9318;48.644;9.456;2023-06-26T01:06:27;0.90;;;0.90;;
18383;SDS011;9318;48.644;9.456;2023-06-26T01:08:57;0.80;;;0.80;;
18383;SDS011;9318;48.644;9.456;2023-06-26T01:11:25;0.90;;;0.90;;
18383;SDS011;9318;48.644;9.456;2023-06-26T01:13:53;0.82;;;0.82;;
18383;SDS011;9318;48.644;9.456;2023-06-26T01:16:22;0.80;;;0.80;;
18383;SDS011;9318;48.644;9.456;2023-06-26T01:18:50;0.85;;;0.85;;
18383;SDS011;9318;48.644;9.456;2023-06-26T01:21:17;0.70;;;0.70;;
18383;SDS011;9318;48.644;9.456;2023-06-26T01:23:51;0.80;;;0.80;;
18383;SDS011;9318;48.644;9.456;2023-06-26T01:26:27;0.80;;;0.80;;
18383;SDS011;9318;48.644;9.456;2023-06-26T01:28:56;0.80;;;0.80;;
18383;SDS011;9318;48.644;9.456;2023-06-26T01:31:24;0.90;;;0.90;;
18383;SDS011;9318;48.644;9.456;2023-06-26T01:33:53;0.80;;;0.80;;
18383;SDS011;9318;48.644;9.456;2023-06-26T01:36:20;0.80;;;0.80;;
18383;SDS011;9318;48.644;9.456;2023-06-26T01:38:48;0.70;;;0.70;;
18383;SDS011;9318;48.644;9.456;2023-06-26T01:41:16;0.90;;;0.90;;
18383;SDS011;9318;48.644;9.456;2023-06-26T01:43:49;0.85;;;0.85;;
18383;SDS011;9318;48.644;9.456;2023-06-26T01:46:27;0.80;;;0.80;;
18383;SDS011;9318;48.644;9.456;2023-06-26T01:49:01;0.80;;;0.80;;
18383;SDS011;9318;48.644;9.456;2023-06-26T01:51:35;0.90;;;0.90;;
18383;SDS011;9318;48.644;9.456;2023-06-26T01:54:08;0.90;;;0.90;;
18383;SDS011;9318;48.644;9.456;2023-06-26T01:56:39;0.90;;;0.90;;
18383;SDS011;9318;48.644;9.456;2023-06-26T01:59:10;0.80;;;0.80;;
18383;SDS011;9318;48.644;9.456;2023-06-26T02:01:39;0.80;;;0.80;;
18383;SDS011;9318;48.644;9.456;2023-06-26T02:04:06;0.90;;;0.90;;
18383;SDS011;9318;48.644;9.456;2023-06-26T02:06:32;0.90;;;0.90;;
18383;SDS011;9318;48.644;9.456;2023-06-26T02:08:59;0.90;;;0.90;;
18383;SDS011;9318;48.644;9.456;2023-06-26T02:11:26;0.80;;;0.80;;
18383;SDS011;9318;48.644;9.456;2023-06-26T02:13:53;0.80;;;0.80;;
18383;SDS011;9318;48.644;9.456;2023-06-26T02:16:21;0.83;;;0.83;;
18383;SDS011;9318;48.644;9.456;2023-06-26T02:18:48;0.80;;;0.80;;
18383;SDS011;9318;48.644;9.456;2023-06-26T02:21:15;0.80;;;0.80;;
18383;SDS011;9318;48.644;9.456;2023-06-26T02:23:42;0.90;;;0.90;;
18383;SDS011;9318;48.644;9.456;2023-06-26T02:26:08;0.90;;;0.90;;
18383;SDS011;9318;48.644;9.456;2023-06-26T02:28:36;0.80;;;0.80;;
18383;SDS011;9318;48.644;9.456;2023-06-26T02:31:02;0.90;;;0.90;;
18383;SDS011;9318;48.644;9.456;2023-06-26T02:33:31;0.80;;;0.80;;
18383;SDS011;9318;48.644;9.456;2023-06-26T02:35:58;0.90;;;0.90;;
18383;SDS011;9318;48.644;9.456;2023-06-26T02:38:25;0.87;;;0.87;;
18383;SDS011;9318;48.644;9.456;2023-06-26T02:40:51;0.80;;;0.80;;
18383;SDS011;9318;48.644;9.456;2023-06-26T02:43:18;0.90;;;0.90;;
18383;SDS011;9318;48.644;9.456;2023-06-26T02:45:45;0.90;;;0.90;;
18383;SDS011;9318;48.644;9.456;2023-06-26T02:48:12;0.90;;;0.90;;
18383;SDS011;9318;48.644;9.456;2023-06-26T02:50:40;0.80;;;0.80;;
18383;SDS011;9318;48.644;9.456;2023-06-26T02:53:07;0.90;;;0.90;;
18383;SDS011;9318;48.644;9.456;2023-06-26T02:55:34;0.80;;;0.80;;
18383;SDS011;9318;48.644;9.456;2023-06-26T02:58:01;0.80;;;0.80;;
18383;SDS011;9318;48.644;9.456;2023-06-26T03:00:27;0.80;;;0.80;;
18383;SDS011;9318;48.644;9.456;2023-06-26T03:02:55;0.90;;;0.90;;
18383;SDS011;9318;48.644;9.456;2023-06-26T03:05:22;0.80;;;0.80;;
18383;SDS011;9318;48.644;9.456;2023-06-26T03:07:50;0.83;;;0.83;;
18383;SDS011;9318;48.644;9.456;2023-06-26T03:10:17;0.90;;;0.90;;
18383;SDS011;9318;48.644;9.456;2023-06-26T03:12:44;0.90;;;0.90;;
18383;SDS011;9318;48.644;9.456;2023-06-26T03:15:10;0.90;;;0.90;;
18383;SDS011;9318;48.644;9.456;2023-06-26T03:17:37;0.90;;;0.90;;
18383;SDS011;9318;48.644;9.456;2023-06-26T03:20:04;0.80;;;0.80;;
18383;SDS011;9318;48.644;9.456;2023-06-26T03:22:32;0.90;;;0.90;;
18383;SDS011;9318;48.644;9.456;2023-06-26T03:25:01;0.87;;;0.87;;
18383;SDS011;9318;48.644;9.456;2023-06-26T03:27:28;0.90;;;0.90;;
18383;SDS011;9318;48.644;9.456;2023-06-26T03:29:55;0.80;;;0.80;;
18383;SDS011;9318;48.644;9.456;2023-06-26T03:32:21;0.90;;;0.90;;
18383;SDS011;9318;48.644;9.456;2023-06-26T03:34:48;0.90;;;0.90;;
18383;SDS011;9318;48.644;9.456;2023-06-26T03:37:15;0.90;;;0.90;;
18383;SDS011;9318;48.644;9.456;2023-06-26T03:39:42;0.90;;;0.90;;
18383;SDS011;9318;48.644;9.456;2023-06-26T03:42:10;0.90;;;0.90;;
18383;SDS011;9318;48.644;9.456;2023-06-26T03:44:37;0.90;;;0.90;;
18383;SDS011;9318;48.644;9.456;2023-06-26T03:47:04;0.90;;;0.90;;
18383;SDS011;9318;48.644;9.456;2023-06-26T03:49:30;0.90;;;0.90;;
18383;SDS011;9318;48.644;9.456;2023-06-26T03:51:57;0.90;;;0.90;;
18383;SDS011;9318;48.644;9.456;2023-06-26T03:54:24;0.90;;;0.90;;
18383;SDS011;9318;48.644;9.456;2023-06-26T03:56:51;0.87;;;0.87;;
18383;SDS011;9318;48.644;9.456;2023-06-26T03:59:19;0.90;;;0.90;;
18383;SDS011;9318;48.644;9.456;2023-06-26T04:01:46;0.70;;;0.70;;
18383;SDS011;9318;48.644;9.456;2023-06-26T04:04:12;0.90;;;0.90;;
18383;SDS011;9318;48.644;9.456;2023-06-26T04:06:39;0.90;;;0.90;;
18383;SDS011;9318;48.644;9.456;2023-06-26T04:09:06;0.80;;;0.80;;
18383;SDS011;9318;48.644;9.456;2023-06-26T04:11:32;0.90;;;0.90;;
18383;SDS011;9318;48.644;9.456;2023-06-26T04:13:59;0.90;;;0.90;;
18383;SDS011;9318;48.644;9.456;2023-06-26T04:16:27;0.90;;;0.90;;
18383;SDS011;9318;48.644;9.456;2023-06-26T04:18:54;0.80;;;0.80;;
18383;SDS011;9318;48.644;9.456;2023-06-26T04:21:22;0.90;;;0.90;;
18383;SDS011;9318;48.644;9.456;2023-06-26T04:23:50;0.80;;;0.80;;
18383;SDS011;9318;48.644;9.456;2023-06-26T04:26:17;0.80;;;0.80;;
18383;SDS011;9318;48.644;9.456;2023-06-26T04:28:43;0.90;;;0.90;;
18383;SDS011;9318;48.644;9.456;2023-06-26T04:31:10;0.90;;;0.90;;
18383;SDS011;9318;48.644;9.456;2023-06-26T04:33:38;0.80;;;0.80;;
18383;SDS011;9318;48.644;9.456;2023-06-26T04:36:05;0.80;;;0.80;;
18383;SDS011;9318;48.644;9.456;2023-06-26T04:38:32;0.90;;;0.90;;
18383;SDS011;9318;48.644;9.456;2023-06-26T04:41:00;0.80;;;0.80;;
18383;SDS011;9318;48.644;9.456;2023-06-26T04:43:27;0.80;;;0.80;;
18383;SDS011;9318;48.644;9.456;2023-06-26T04:45:54;0.80;;;0.80;;
18383;SDS011;9318;48.644;9.456;2023-06-26T04:48:20;0.80;;;0.80;;
18383;SDS011;9318;48.644;9.456;2023-06-26T04:50:49;0.70;;;0.70;;
18383;SDS011;9318;48.644;9.456;2023-06-26T04:53:18;0.80;;;0.80;;
18383;SDS011;9318;48.644;9.456;2023-06-26T04:55:46;0.77;;;0.77;;
18383;SDS011;9318;48.644;9.456;2023-06-26T04:58:12;0.80;;;0.80;;
18383;SDS011;9318;48.644;9.456;2023-06-26T05:00:39;0.70;;;0.70;;
18383;SDS011;9318;48.644;9.456;2023-06-26T05:03:07;0.70;;;0.70;;
18383;SDS011;9318;48.644;9.456;2023-06-26T05:05:34;0.70;;;0.70;;
18383;SDS011;9318;48.644;9.456;2023-06-26T05:08:14;0.70;;;0.70;;
18383;SDS011;9318;48.644;9.456;2023-06-26T05:10:42;0.60;;;0.60;;
18383;SDS011;9318;48.644;9.456;2023-06-26T05:13:10;0.60;;;0.60;;
18383;SDS011;9318;48.644;9.456;2023-06-26T05:15:39;0.50;;;0.50;;
18383;SDS011;9318;48.644;9.456;2023-06-26T05:18:06;0.52;;;0.52;;
18383;SDS011;9318;48.644;9.456;2023-06-26T05:20:33;0.60;;;0.60;;
18383;SDS011;9318;48.644;9.456;2023-06-26T05:23:01;0.60;;;0.60;;
18383;SDS011;9318;48.644;9.456;2023-06-26T05:25:29;0.50;;;0.50;;
18383;SDS011;9318;48.644;9.456;2023-06-26T05:27:59;0.45;;;0.45;;
18383;SDS011;9318;48.644;9.456;2023-06-26T05:30:27;0.47;;;0.47;;
18383;SDS011;9318;48.644;9.456;2023-06-26T05:32:56;0.60;;;0.60;;
18383;SDS011;9318;48.644;9.456;2023-06-26T05:35:25;0.60;;;0.60;;
18383;SDS011;9318;48.644;9.456;2023-06-26T05:37:54;0.60;;;0.60;;
18383;SDS011;9318;48.644;9.456;2023-06-26T05:40:22;0.60;;;0.60;;
18383;SDS011;9318;48.644;9.456;2023-06-26T05:42:51;0.50;;;0.50;;
18383;SDS011;9318;48.644;9.456;2023-06-26T05:45:18;0.50;;;0.50;;
18383;SDS011;9318;48.644;9.456;2023-06-26T05:47:45;0.50;;;0.50;;
18383;SDS011;9318;48.644;9.456;2023-06-26T05:50:13;0.43;;;0.43;;
18383;SDS011;9318;48.644;9.456;2023-06-26T05:52:40;0.40;;;0.40;;
18383;SDS011;9318;48.644;9.456;2023-06-26T05:55:09;0.40;;;0.40;;
18383;SDS011;9318;48.644;9.456;2023-06-26T05:57:37;0.50;;;0.50;;
18383;SDS011;9318;48.644;9.456;2023-06-26T06:00:08;0.45;;;0.45;;
18383;SDS011;9318;48.644;9.456;2023-06-26T06:02:36;0.40;;;0.40;;
18383;SDS011;9318;48.644;9.456;2023-06-26T06:05:03;0.50;;;0.50;;
18383;SDS011;9318;48.644;9.456;2023-06-26T06:07:30;0.32;;;0.32;;
18383;SDS011;9318;48.644;9.456;2023-06-26T06:09:57;0.40;;;0.40;;
18383;SDS011;9318;48.644;9.456;2023-06-26T06:12:24;0.40;;;0.40;;
18383;SDS011;9318;48.644;9.456;2023-06-26T06:14:51;0.30;;;0.30;;
18383;SDS011;9318;48.644;9.456;2023-06-26T06:17:19;0.40;;;0.40;;
18383;SDS011;9318;48.644;9.456;2023-06-26T06:19:46;0.45;;;0.45;;
18383;SDS011;9318;48.644;9.456;2023-06-26T06:22:12;0.30;;;0.30;;
18383;SDS011;9318;48.644;9.456;2023-06-26T06:24:39;0.40;;;0.40;;
18383;SDS011;9318;48.644;9.456;2023-06-26T06:27:06;0.30;;;0.30;;
18383;SDS011;9318;48.644;9.456;2023-06-26T06:29:33;0.32;;;0.32;;
18383;SDS011;9318;48.644;9.456;2023-06-26T06:31:59;0.32;;;0.32;;
18383;SDS011;9318;48.644;9.456;2023-06-26T06:34:27;0.30;;;0.30;;
18383;SDS011;9318;48.644;9.456;2023-06-26T06:36:54;0.40;;;0.40;;
18383;SDS011;9318;48.644;9.456;2023-06-26T06:39:21;0.30;;;0.30;;
18383;SDS011;9318;48.644;9.456;2023-06-26T06:41:48;0.30;;;0.30;;
18383;SDS011;9318;48.644;9.456;2023-06-26T06:44:14;0.30;;;0.30;;
18383;SDS011;9318;48.644;9.456;2023-06-26T06:46:41;0.30;;;0.30;;
18383;SDS011;9318;48.644;9.456;2023-06-26T06:49:08;0.30;;;0.30;;
18383;SDS011;9318;48.644;9.456;2023-06-26T06:51:36;0.30;;;0.30;;
18383;SDS011;9318;48.644;9.456;2023-06-26T06:54:03;0.30;;;0.30;;
18383;SDS011;9318;48.644;9.456;2023-06-26T06:56:30;0.30;;;0.30;;
18383;SDS011;9318;48.644;9.456;2023-06-26T06:58:57;0.22;;;0.22;;
18383;SDS011;9318;48.644;9.456;2023-06-26T07:01:23;0.30;;;0.30;;
18383;SDS011;9318;48.644;9.456;2023-06-26T07:03:50;0.30;;;0.30;;
18383;SDS011;9318;48.644;9.456;2023-06-26T07:06:17;0.22;;;0.22;;
18383;SDS011;9318;48.644;9.456;2023-06-26T07:08:45;0.30;;;0.30;;
18383;SDS011;9318;48.644;9.456;2023-06-26T07:11:12;0.30;;;0.30;;
18383;SDS011;9318;48.644;9.456;2023-06-26T07:13:38;0.30;;;0.30;;
18383;SDS011;9318;48.644;9.456;2023-06-26T07:16:05;0.20;;;0.20;;
18383;SDS011;9318;48.644;9.456;2023-06-26T07:18:32;0.30;;;0.30;;
18383;SDS011;9318;48.644;9.456;2023-06-26T07:20:59;0.20;;;0.20;;
18383;SDS011;9318;48.644;9.456;2023-06-26T07:23:26;0.20;;;0.20;;
18383;SDS011;9318;48.644;9.456;2023-06-26T07:25:54;0.20;;;0.20;;
18383;SDS011;9318;48.644;9.456;2023-06-26T07:28:21;0.22;;;0.22;;
18383;SDS011;9318;48.644;9.456;2023-06-26T07:30:47;0.20;;;0.20;;
18383;SDS011;9318;48.644;9.456;2023-06-26T07:33:14;0.20;;;0.20;;
18383;SDS011;9318;48.644;9.456;2023-06-26T07:35:41;0.20;;;0.20;;
18383;SDS011;9318;48.644;9.456;2023-06-26T07:38:08;0.20;;;0.20;;
18383;SDS011;9318;48.644;9.456;2023-06-26T07:40:34;0.20;;;0.20;;
18383;SDS011;9318;48.644;9.456;2023-06-26T07:43:02;0.20;;;0.20;;
18383;SDS011;9318;48.644;9.456;2023-06-26T07:45:29;0.20;;;0.20;;
18383;SDS011;9318;48.644;9.456;2023-06-26T07:47:56;0.20;;;0.20;;
18383;SDS011;9318;48.644;9.456;2023-06-26T07:50:23;0.20;;;0.20;;
18383;SDS011;9318;48.644;9.456;2023-06-26T07:52:49;0.20;;;0.20;;
18383;SDS011;9318;48.644;9.456;2023-06-26T07:55:18;0.20;;;0.20;;
18383;SDS011;9318;48.644;9.456;2023-06-26T07:57:45;0.10;;;0.10;;
18383;SDS011;9318;48.644;9.456;2023-06-26T08:00:13;0.10;;;0.10;;
18383;SDS011;9318;48.644;9.456;2023-06-26T08:02:40;0.20;;;0.20;;
18383;SDS011;9318;48.644;9.456;2023-06-26T08:05:07;0.28;;;0.28;;
18383;SDS011;9318;48.644;9.456;2023-06-26T08:07:34;0.20;;;0.20;;
18383;SDS011;9318;48.644;9.456;2023-06-26T08:10:00;0.20;;;0.20;;
18383;SDS011;9318;48.644;9.456;2023-06-26T08:12:27;0.20;;;0.20;;
18383;SDS011;9318;48.644;9.456;2023-06-26T08:14:54;0.20;;;0.20;;
18383;SDS011;9318;48.644;9.456;2023-06-26T08:17:22;0.20;;;0.20;;
18383;SDS011;9318;48.644;9.456;2023-06-26T08:19:49;0.20;;;0.20;;
18383;SDS011;9318;48.644;9.456;2023-06-26T08:22:15;0.20;;;0.20;;
18383;SDS011;9318;48.644;9.456;2023-06-26T08:24:42;0.10;;;0.10;;
18383;SDS011;9318;48.644;9.456;2023-06-26T08:27:09;0.20;;;0.20;;
18383;SDS011;9318;48.644;9.456;2023-06-26T08:29:36;0.10;;;0.10;;
18383;SDS011;9318;48.644;9.456;2023-06-26T08:32:03;0.20;;;0.20;;
18383;SDS011;9318;48.644;9.456;2023-06-26T08:34:31;0.20;;;0.20;;
18383;SDS011;9318;48.644;9.456;2023-06-26T08:36:58;0.20;;;0.20;;
18383;SDS011;9318;48.644;9.456;2023-06-26T08:39:25;0.20;;;0.20;;
18383;SDS011;9318;48.644;9.456;2023-06-26T08:41:52;0.20;;;0.20;;
18383;SDS011;9318;48.644;9.456;2023-06-26T08:44:19;0.20;;;0.20;;
18383;SDS011;9318;48.644;9.456;2023-06-26T08:46:48;0.20;;;0.20;;
18383;SDS011;9318;48.644;9.456;2023-06-26T08:49:18;0.30;;;0.30;;
18383;SDS011;9318;48.644;9.456;2023-06-26T08:51:50;0.20;;;0.20;;
18383;SDS011;9318;48.644;9.456;2023-06-26T08:54:22;0.30;;;0.30;;
18383;SDS011;9318;48.644;9.456;2023-06-26T08:56:53;0.20;;;0.20;;
18383;SDS011;9318;48.644;9.456;2023-06-26T08:59:22;0.20;;;0.20;;
18383;SDS011;9318;48.644;9.456;2023-06-26T09:01:49;0.30;;;0.30;;
18383;SDS011;9318;48.644;9.456;2023-06-26T09:04:16;0.20;;;0.20;;
18383;SDS011;9318;48.644;9.456;2023-06-26T09:06:43;0.28;;;0.28;;
18383;SDS011;9318;48.644;9.456;2023-06-26T09:09:11;0.22;;;0.22;;
18383;SDS011;9318;48.644;9.456;2023-06-26T09:11:38;0.20;;;0.20;;
18383;SDS011;9318;48.644;9.456;2023-06-26T09:14:05;0.20;;;0.20;;
18383;SDS011;9318;48.644;9.456;2023-06-26T09:16:38;0.30;;;0.30;;
18383;SDS011;9318;48.644;9.456;2023-06-26T09:19:08;0.22;;;0.22;;
18383;SDS011;9318;48.644;9.456;2023-06-26T09:21:36;0.25;;;0.25;;
18383;SDS011;9318;48.644;9.456;2023-06-26T09:24:03;0.28;;;0.28;;
18383;SDS011;9318;48.644;9.456;2023-06-26T09:26:33;0.30;;;0.30;;
18383;SDS011;9318;48.644;9.456;2023-06-26T09:29:01;0.30;;;0.30;;
18383;SDS011;9318;48.644;9.456;2023-06-26T09:31:28;0.30;;;0.30;;
18383;SDS011;9318;48.644;9.456;2023-06-26T09:33:55;0.35;;;0.35;;
18383;SDS011;9318;48.644;9.456;2023-06-26T09:36:26;0.30;;;0.30;;
18383;SDS011;9318;48.644;9.456;2023-06-26T09:38:54;0.20;;;0.20;;
18383;SDS011;9318;48.644;9.456;2023-06-26T09:41:20;0.20;;;0.20;;
18383;SDS011;9318;48.644;9.456;2023-06-26T09:43:49;0.30;;;0.30;;
18383;SDS011;9318;48.644;9.456;2023-06-26T09:46:17;0.30;;;0.30;;
18383;SDS011;9318;48.644;9.456;2023-06-26T09:48:50;0.30;;;0.30;;
18383;SDS011;9318;48.644;9.456;2023-06-26T09:51:23;0.20;;;0.20;;
18383;SDS011;9318;48.644;9.456;2023-06-26T09:53:50;0.30;;;0.30;;
18383;SDS011;9318;48.644;9.456;2023-06-26T09:56:17;0.20;;;0.20;;
18383;SDS011;9318;48.644;9.456;2023-06-26T09:58:44;0.25;;;0.25;;
18383;SDS011;9318;48.644;9.456;2023-06-26T10:01:12;0.30;;;0.30;;
18383;SDS011;9318;48.644;9.456;2023-06-26T10:03:39;0.20;;;0.20;;
18383;SDS011;9318;48.644;9.456;2023-06-26T10:06:07;0.20;;;0.20;;
18383;SDS011;9318;48.644;9.456;2023-06-26T10:08:37;0.30;;;0.30;;
18383;SDS011;9318;48.644;9.456;2023-06-26T10:11:05;0.30;;;0.30;;
18383;SDS011;9318;48.644;9.456;2023-06-26T10:13:34;0.30;;;0.30;;
18383;SDS011;9318;48.644;9.456;2023-06-26T10:16:10;0.28;;;0.28;;
18383;SDS011;9318;48.644;9.456;2023-06-26T10:18:39;0.20;;;0.20;;
18383;SDS011;9318;48.644;9.456;2023-06-26T10:21:07;0.30;;;0.30;;
18383;SDS011;9318;48.644;9.456;2023-06-26T10:23:36;0.30;;;0.30;;
18383;SDS011;9318;48.644;9.456;2023-06-26T10:26:05;0.20;;;0.20;;
18383;SDS011;9318;48.644;9.456;2023-06-26T10:28:33;0.20;;;0.20;;
18383;SDS011;9318;48.644;9.456;2023-06-26T10:31:01;0.30;;;0.30;;
18383;SDS011;9318;48.644;9.456;2023-06-26T10:33:33;0.20;;;0.20;;
18383;SDS011;9318;48.644;9.456;2023-06-26T10:36:13;0.30;;;0.30;;
18383;SDS011;9318;48.644;9.456;2023-06-26T10:38:47;0.20;;;0.20;;
18383;SDS011;9318;48.644;9.456;2023-06-26T10:41:15;0.20;;;0.20;;
18383;SDS011;9318;48.644;9.456;2023-06-26T10:43:48;0.30;;;0.30;;
18383;SDS011;9318;48.644;9.456;2023-06-26T10:46:15;0.30;;;0.30;;
18383;SDS011;9318;48.644;9.456;2023-06-26T10:48:58;0.30;;;0.30;;
18383;SDS011;9318;48.644;9.456;2023-06-26T10:51:26;0.28;;;0.28;;
18383;SDS011;9318;48.644;9.456;2023-06-26T10:53:56;0.30;;;0.30;;
18383;SDS011;9318;48.644;9.456;2023-06-26T10:56:42;0.22;;;0.22;;
18383;SDS011;9318;48.644;9.456;2023-06-26T10:59:13;0.30;;;0.30;;
18383;SDS011;9318;48.644;9.456;2023-06-26T11:01:41;0.30;;;0.30;;
18383;SDS011;9318;48.644;9.456;2023-06-26T11:04:10;0.20;;;0.20;;
18383;SDS011;9318;48.644;9.456;2023-06-26T11:06:40;0.20;;;0.20;;
18383;SDS011;9318;48.644;9.456;2023-06-26T11:09:07;0.22;;;0.22;;
18383;SDS011;9318;48.644;9.456;2023-06-26T11:14:40;0.20;;;0.20;;
18383;SDS011;9318;48.644;9.456;2023-06-26T11:17:07;0.20;;;0.20;;
18383;SDS011;9318;48.644;9.456;2023-06-26T11:19:37;0.20;;;0.20;;
18383;SDS011;9318;48.644;9.456;2023-06-26T11:22:09;0.15;;;0.15;;
18383;SDS011;9318;48.644;9.456;2023-06-26T11:24:36;0.30;;;0.30;;
18383;SDS011;9318;48.644;9.456;2023-06-26T11:27:04;0.30;;;0.30;;
18383;SDS011;9318;48.644;9.456;2023-06-26T11:29:31;0.30;;;0.30;;
18383;SDS011;9318;48.644;9.456;2023-06-26T11:31:59;0.38;;;0.38;;
18383;SDS011;9318;48.644;9.456;2023-06-26T11:34:31;0.25;;;0.25;;
18383;SDS011;9318;48.644;9.456;2023-06-26T11:36:59;0.30;;;0.30;;
18383;SDS011;9318;48.644;9.456;2023-06-26T11:39:28;0.30;;;0.30;;
18383;SDS011;9318;48.644;9.456;2023-06-26T11:41:54;0.30;;;0.30;;
18383;SDS011;9318;48.644;9.456;2023-06-26T11:44:22;0.40;;;0.40;;
18383;SDS011;9318;48.644;9.456;2023-06-26T11:46:51;0.30;;;0.30;;
18383;SDS011;9318;48.644;9.456;2023-06-26T11:49:20;0.20;;;0.20;;
18383;SDS011;9318;48.644;9.456;2023-06-26T11:51:50;0.20;;;0.20;;
18383;SDS011;9318;48.644;9.456;2023-06-26T11:54:24;0.28;;;0.28;;
18383;SDS011;9318;48.644;9.456;2023-06-26T11:56:51;0.30;;;0.30;;
18383;SDS011;9318;48.644;9.456;2023-06-26T11:59:21;0.20;;;0.20;;
18383;SDS011;9318;48.644;9.456;2023-06-26T12:01:50;0.20;;;0.20;;
18383;SDS011;9318;48.644;9.456;2023-06-26T12:04:18;0.20;;;0.20;;
18383;SDS011;9318;48.644;9.456;2023-06-26T12:06:47;0.20;;;0.20;;
18383;SDS011;9318;48.644;9.456;2023-06-26T12:09:16;0.30;;;0.30;;
18383;SDS011;9318;48.644;9.456;2023-06-26T12:11:47;0.20;;;0.20;;
18383;SDS011;9318;48.644;9.456;2023-06-26T12:14:17;0.28;;;0.28;;
18383;SDS011;9318;48.644;9.456;2023-06-26T12:16:45;0.30;;;0.30;;
18383;SDS011;9318;48.644;9.456;2023-06-26T12:19:13;0.25;;;0.25;;
18383;SDS011;9318;48.644;9.456;2023-06-26T12:21:44;0.30;;;0.30;;
18383;SDS011;9318;48.644;9.456;2023-06-26T12:24:13;0.30;;;0.30;;
18383;SDS011;9318;48.644;9.456;2023-06-26T12:26:42;0.20;;;0.20;;
18383;SDS011;9318;48.644;9.456;2023-06-26T12:29:11;0.30;;;0.30;;
18383;SDS011;9318;48.644;9.456;2023-06-26T12:31:39;0.20;;;0.20;;
18383;SDS011;9318;48.644;9.456;2023-06-26T12:34:08;0.30;;;0.30;;
18383;SDS011;9318;48.644;9.456;2023-06-26T12:36:39;0.30;;;0.30;;
18383;SDS011;9318;48.644;9.456;2023-06-26T12:39:08;0.22;;;0.22;;
18383;SDS011;9318;48.644;9.456;2023-06-26T12:41:43;0.20;;;0.20;;
18383;SDS011;9318;48.644;9.456;2023-06-26T12:44:21;0.30;;;0.30;;
18383;SDS011;9318;48.644;9.456;2023-06-26T12:46:54;0.30;;;0.30;;
18383;SDS011;9318;48.644;9.456;2023-06-26T12:49:29;0.30;;;0.30;;
18383;SDS011;9318;48.644;9.456;2023-06-26T12:51:57;0.20;;;0.20;;
18383;SDS011;9318;48.644;9.456;2023-06-26T12:54:24;0.30;;;0.30;;
18383;SDS011;9318;48.644;9.456;2023-06-26T12:56:51;0.30;;;0.30;;
18383;SDS011;9318;48.644;9.456;2023-06-26T12:59:18;0.35;;;0.35;;
18383;SDS011;9318;48.644;9.456;2023-06-26T13:01:46;0.40;;;0.40;;
18383;SDS011;9318;48.644;9.456;2023-06-26T13:04:13;0.30;;;0.30;;
18383;SDS011;9318;48.644;9.456;2023-06-26T13:06:40;0.32;;;0.32;;
18383;SDS011;9318;48.644;9.456;2023-06-26T13:09:07;0.30;;;0.30;;
18383;SDS011;9318;48.644;9.456;2023-06-26T13:11:34;0.30;;;0.30;;
18383;SDS011;9318;48.644;9.456;2023-06-26T13:14:02;0.30;;;0.30;;
18383;SDS011;9318;48.644;9.456;2023-06-26T13:16:29;0.30;;;0.30;;
18383;SDS011;9318;48.644;9.456;2023-06-26T13:18:58;0.30;;;0.30;;
18383;SDS011;9318;48.644;9.456;2023-06-26T13:21:25;0.30;;;0.30;;
18383;SDS011;9318;48.644;9.456;2023-06-26T13:23:52;0.30;;;0.30;;
18383;SDS011;9318;48.644;9.456;2023-06-26T13:26:19;0.28;;;0.28;;
18383;SDS011;9318;48.644;9.456;2023-06-26T13:28:46;0.30;;;0.30;;
18383;SDS011;9318;48.644;9.456;2023-06-26T13:31:13;0.20;;;0.20;;
18383;SDS011;9318;48.644;9.456;2023-06-26T13:33:40;0.25;;;0.25;;
18383;SDS011;9318;48.644;9.456;2023-06-26T13:36:08;0.30;;;0.30;;
18383;SDS011;9318;48.644;9.456;2023-06-26T13:38:35;0.20;;;0.20;;
18383;SDS011;9318;48.644;9.456;2023-06-26T13:41:01;0.30;;;0.30;;
18383;SDS011;9318;48.644;9.456;2023-06-26T13:43:28;0.40;;;0.40;;
18383;SDS011;9318;48.644;9.456;2023-06-26T13:45:55;0.30;;;0.30;;
18383;SDS011;9318;48.644;9.456;2023-06-26T13:48:23;0.30;;;0.30;;
18383;SDS011;9318;48.644;9.456;2023-06-26T13:50:50;0.30;;;0.30;;
18383;SDS011;9318;48.644;9.456;2023-06-26T13:53:18;0.30;;;0.30;;
18383;SDS011;9318;48.644;9.456;2023-06-26T13:55:45;0.30;;;0.30;;
18383;SDS011;9318;48.644;9.456;2023-06-26T13:58:12;0.30;;;0.30;;
18383;SDS011;9318;48.644;9.456;2023-06-26T14:00:39;0.30;;;0.30;;
18383;SDS011;9318;48.644;9.456;2023-06-26T14:03:09;0.30;;;0.30;;
18383;SDS011;9318;48.644;9.456;2023-06-26T14:05:36;0.38;;;0.38;;
18383;SDS011;9318;48.644;9.456;2023-06-26T14:08:03;0.30;;;0.30;;
18383;SDS011;9318;48.644;9.456;2023-06-26T14:10:33;0.38;;;0.38;;
18383;SDS011;9318;48.644;9.456;2023-06-26T14:13:00;0.30;;;0.30;;
18383;SDS011;9318;48.644;9.456;2023-06-26T14:15:28;0.30;;;0.30;;
18383;SDS011;9318;48.644;9.456;2023-06-26T14:17:54;0.40;;;0.40;;
18383;SDS011;9318;48.644;9.456;2023-06-26T14:20:22;0.30;;;0.30;;
18383;SDS011;9318;48.644;9.456;2023-06-26T14:22:49;0.30;;;0.30;;
18383;SDS011;9318;48.644;9.456;2023-06-26T14:25:16;0.30;;;0.30;;
18383;SDS011;9318;48.644;9.456;2023-06-26T14:27:44;0.30;;;0.30;;
18383;SDS011;9318;48.644;9.456;2023-06-26T14:30:11;0.35;;;0.35;;
18383;SDS011;9318;48.644;9.456;2023-06-26T14:32:38;0.30;;;0.30;;
18383;SDS011;9318;48.644;9.456;2023-06-26T14:35:05;0.40;;;0.40;;
18383;SDS011;9318;48.644;9.456;2023-06-26T14:37:32;0.40;;;0.40;;
18383;SDS011;9318;48.644;9.456;2023-06-26T14:40:02;0.40;;;0.40;;
18383;SDS011;9318;48.644;9.456;2023-06-26T14:42:29;0.30;;;0.30;;
18383;SDS011;9318;48.644;9.456;2023-06-26T14:44:57;0.30;;;0.30;;
18383;SDS011;9318;48.644;9.456;2023-06-26T14:47:23;0.25;;;0.25;;
18383;SDS011;9318;48.644;9.456;2023-06-26T14:49:50;0.30;;;0.30;;
18383;SDS011;9318;48.644;9.456;2023-06-26T14:52:17;0.30;;;0.30;;
18383;SDS011;9318;48.644;9.456;2023-06-26T14:54:44;0.35;;;0.35;;
18383;SDS011;9318;48.644;9.456;2023-06-26T14:57:10;0.30;;;0.30;;
18383;SDS011;9318;48.644;9.456;2023-06-26T14:59:37;0.38;;;0.38;;
18383;SDS011;9318;48.644;9.456;2023-06-26T15:02:05;0.30;;;0.30;;
18383;SDS011;9318;48.644;9.456;2023-06-26T15:04:32;0.40;;;0.40;;
18383;SDS011;9318;48.644;9.456;2023-06-26T15:06:59;0.40;;;0.40;;